Time;durP1;ratioP1;P1;durP2;ratioP2;P2;SDS_P1;SDS_P2;PMS_P1;PMS_P2;Temp;Humidity;BMP_temperature;BMP_pressure;BME280_temperature;BME280_humidity;BME280_pressure;Samples;Min_cycle;Max_cycle;Signal;HPM_P1;HPM_P2
2023/04/27 00:00:29;;;;;;;6.57;5.53;;;9.40;95.20;;;;;;5044673;28;20681;-41
2023/04/27 00:02:58;;;;;;;7.77;5.73;;;9.30;95.20;;;;;;5046177;28;20203;-41
2023/04/27 00:05:28;;;;;;;8.57;5.87;;;9.30;95.20;;;;;;5025157;28;20225;-41
2023/04/27 00:07:57;;;;;;;8.93;5.90;;;9.20;95.20;;;;;;5059036;28;20634;-41
2023/04/27 00:10:30;;;;;;;9.37;6.10;;;9.20;95.20;;;;;;5064875;28;20231;-41
2023/04/27 00:13:00;;;;;;;8.77;5.83;;;9.10;95.10;;;;;;5037745;28;20209;-41
2023/04/27 00:15:30;;;;;;;8.43;5.43;;;9.10;95.10;;;;;;5043789;28;20258;-41
2023/04/27 00:18:00;;;;;;;7.93;5.47;;;9.00;95.10;;;;;;5058978;28;20219;-41
2023/04/27 00:20:27;;;;;;;9.53;5.90;;;9.00;95.20;;;;;;5064991;28;20212;-40
2023/04/27 00:22:55;;;;;;;8.97;6.10;;;9.00;95.10;;;;;;5062561;28;20295;-41
2023/04/27 00:25:24;;;;;;;7.77;6.13;;;9.00;95.20;;;;;;5029630;28;20233;-41
2023/04/27 00:27:52;;;;;;;10.10;6.13;;;9.00;95.20;;;;;;5044329;28;20310;-41
2023/04/27 00:30:19;;;;;;;8.40;5.73;;;8.90;95.10;;;;;;5042613;28;20224;-41
2023/04/27 00:32:46;;;;;;;8.37;6.13;;;8.90;95.10;;;;;;5042745;28;20203;-41
2023/04/27 00:35:16;;;;;;;8.87;6.10;;;8.90;95.20;;;;;;5030763;28;20335;-41
2023/04/27 00:37:45;;;;;;;8.73;6.27;;;8.80;95.10;;;;;;5032294;28;20298;-41
2023/04/27 00:40:13;;;;;;;9.40;6.13;;;8.80;95.20;;;;;;5063675;28;20227;-41
2023/04/27 00:42:42;;;;;;;9.03;6.30;;;8.70;95.30;;;;;;5063187;28;20214;-41
2023/04/27 00:45:10;;;;;;;7.70;5.93;;;8.70;95.30;;;;;;5033265;28;20671;-41
2023/04/27 00:47:41;;;;;;;7.90;5.70;;;8.70;95.20;;;;;;5050405;28;20727;-41
2023/04/27 00:50:09;;;;;;;8.80;5.87;;;8.80;95.50;;;;;;5053002;28;20197;-41
2023/04/27 00:52:39;;;;;;;8.63;5.77;;;8.80;95.20;;;;;;5035049;28;20203;-41
2023/04/27 00:55:09;;;;;;;9.17;6.47;;;8.80;95.30;;;;;;5039176;28;20599;-41
2023/04/27 00:57:39;;;;;;;12.20;6.70;;;8.80;95.30;;;;;;5033739;28;20229;-41
2023/04/27 01:00:10;;;;;;;8.43;6.60;;;8.80;95.40;;;;;;5022961;28;20201;-41
2023/04/27 01:02:38;;;;;;;9.23;6.50;;;8.80;95.30;;;;;;5026772;28;20335;-41
2023/04/27 01:05:07;;;;;;;8.93;6.77;;;8.80;95.40;;;;;;5027196;28;20270;-41
2023/04/27 01:07:39;;;;;;;9.17;6.50;;;8.80;95.30;;;;;;5035391;28;20200;-41
2023/04/27 01:10:08;;;;;;;9.40;6.80;;;8.80;95.50;;;;;;5045837;28;20234;-41
2023/04/27 01:12:38;;;;;;;9.03;7.07;;;8.80;95.80;;;;;;5041257;28;20759;-41
2023/04/27 01:15:08;;;;;;;11.10;7.43;;;8.80;95.40;;;;;;5036530;28;20650;-41
2023/04/27 01:17:38;;;;;;;10.10;6.90;;;8.70;95.50;;;;;;5037830;28;20208;-41
2023/04/27 01:20:09;;;;;;;11.27;7.63;;;8.70;95.40;;;;;;5043798;28;20638;-41
2023/04/27 01:22:37;;;;;;;9.30;7.53;;;8.70;95.40;;;;;;5043546;28;20244;-41
2023/04/27 01:25:05;;;;;;;9.43;7.50;;;8.70;95.50;;;;;;5041945;28;20200;-41
2023/04/27 01:27:32;;;;;;;11.13;8.37;;;8.60;95.30;;;;;;5041116;28;20817;-41
2023/04/27 01:30:00;;;;;;;12.97;8.70;;;8.60;95.50;;;;;;5045475;28;20239;-41
2023/04/27 01:32:29;;;;;;;10.47;8.00;;;8.60;95.60;;;;;;5041576;28;20198;-41
2023/04/27 01:34:59;;;;;;;13.10;7.97;;;8.60;95.40;;;;;;5062823;28;20195;-41
2023/04/27 01:37:26;;;;;;;14.33;8.60;;;8.60;95.50;;;;;;5045037;28;20340;-41
2023/04/27 01:39:55;;;;;;;10.20;7.77;;;8.50;95.60;;;;;;5053739;28;20299;-41
2023/04/27 01:42:25;;;;;;;12.23;8.00;;;8.50;95.50;;;;;;5051857;28;20216;-41
2023/04/27 01:44:55;;;;;;;12.57;8.03;;;8.50;95.50;;;;;;5038402;28;20286;-41
2023/04/27 01:47:24;;;;;;;10.00;7.73;;;8.50;95.50;;;;;;5046676;28;20255;-41
2023/04/27 01:49:54;;;;;;;11.13;7.77;;;8.50;95.50;;;;;;5063337;28;20195;-41
2023/04/27 01:52:21;;;;;;;9.17;7.60;;;8.40;95.50;;;;;;5050899;28;20235;-41
2023/04/27 01:54:51;;;;;;;9.47;7.60;;;8.40;95.40;;;;;;5033162;28;20211;-41
2023/04/27 01:57:22;;;;;;;11.53;7.87;;;8.40;95.50;;;;;;5051748;28;20335;-41
2023/04/27 01:59:50;;;;;;;9.80;7.23;;;8.30;95.40;;;;;;5039263;28;20240;-41
2023/04/27 02:02:21;;;;;;;9.10;7.23;;;8.30;95.40;;;;;;5030940;28;20664;-41
2023/04/27 02:04:54;;;;;;;11.07;7.30;;;8.30;95.50;;;;;;5061959;28;20611;-41
2023/04/27 02:07:26;;;;;;;10.67;7.93;;;8.20;95.50;;;;;;5062979;28;20223;-41
2023/04/27 02:09:53;;;;;;;10.70;7.50;;;8.20;95.40;;;;;;5062304;28;20196;-41
2023/04/27 02:12:22;;;;;;;11.23;8.17;;;8.20;95.40;;;;;;5027361;28;20300;-41
2023/04/27 02:14:51;;;;;;;13.13;7.67;;;8.10;95.70;;;;;;5060143;28;20335;-41
2023/04/27 02:17:21;;;;;;;11.63;7.17;;;8.10;95.40;;;;;;5044180;28;20204;-41
2023/04/27 02:19:56;;;;;;;12.03;7.40;;;8.10;95.50;;;;;;5059516;28;20244;-41
2023/04/27 02:22:23;;;;;;;12.57;7.90;;;8.10;95.50;;;;;;5026704;28;20239;-41
2023/04/27 02:24:50;;;;;;;11.17;7.47;;;8.00;95.40;;;;;;5060410;28;20564;-41
2023/04/27 02:27:20;;;;;;;10.10;7.70;;;8.00;95.50;;;;;;5065505;28;20223;-41
2023/04/27 02:29:55;;;;;;;9.40;7.20;;;8.00;95.40;;;;;;5025851;28;20220;-41
2023/04/27 02:32:22;;;;;;;10.80;8.17;;;7.90;95.40;;;;;;5044218;28;20629;-41
2023/04/27 02:34:55;;;;;;;11.47;7.70;;;7.90;95.40;;;;;;5065046;28;20560;-41
2023/04/27 02:37:22;;;;;;;10.87;7.80;;;7.90;95.50;;;;;;5064315;28;20243;-40
2023/04/27 02:39:54;;;;;;;11.13;7.90;;;7.80;95.40;;;;;;5039720;28;20651;-40
2023/04/27 02:42:24;;;;;;;10.53;8.00;;;7.80;95.50;;;;;;5042630;28;20633;-40
2023/04/27 02:44:54;;;;;;;13.07;8.30;;;7.80;95.70;;;;;;5050913;28;20262;-40
2023/04/27 02:47:24;;;;;;;12.63;8.13;;;7.80;95.50;;;;;;5037397;28;20340;-40
2023/04/27 02:49:55;;;;;;;11.20;8.00;;;7.80;95.50;;;;;;5064787;28;20215;-40
2023/04/27 02:52:30;;;;;;;9.83;7.60;;;7.80;95.50;;;;;;5044574;28;20304;-40
2023/04/27 02:54:57;;;;;;;11.40;8.00;;;7.70;95.50;;;;;;5040180;28;20572;-40
2023/04/27 02:57:31;;;;;;;11.50;8.00;;;7.70;95.50;;;;;;5063467;28;20239;-40
2023/04/27 02:59:58;;;;;;;12.70;7.83;;;7.70;95.50;;;;;;5066281;28;20644;-40
2023/04/27 03:02:27;;;;;;;12.40;8.07;;;7.60;95.40;;;;;;5043607;28;20302;-40
2023/04/27 03:04:58;;;;;;;11.53;7.90;;;7.60;95.50;;;;;;5062808;28;20295;-40
2023/04/27 03:07:27;;;;;;;12.13;8.57;;;7.60;95.40;;;;;;5066544;28;20259;-40
2023/04/27 03:09:57;;;;;;;11.07;8.47;;;7.50;95.40;;;;;;5041973;28;20201;-40
2023/04/27 03:12:26;;;;;;;11.00;7.90;;;7.50;95.40;;;;;;5025597;28;20243;-40
2023/04/27 03:14:54;;;;;;;12.57;9.00;;;7.50;95.40;;;;;;5032603;28;20588;-40
2023/04/27 03:17:23;;;;;;;9.57;7.53;;;7.40;95.40;;;;;;5063523;28;20208;-40
2023/04/27 03:19:50;;;;;;;12.00;8.50;;;7.40;95.40;;;;;;5028735;28;20306;-40
2023/04/27 03:22:17;;;;;;;10.83;7.93;;;7.40;95.50;;;;;;5045593;28;20205;-40
2023/04/27 03:24:44;;;;;;;10.07;7.77;;;7.40;95.50;;;;;;5044199;28;20299;-40
2023/04/27 03:27:11;;;;;;;13.00;7.83;;;7.30;95.40;;;;;;5038421;28;20623;-40
2023/04/27 03:29:39;;;;;;;11.47;8.23;;;7.30;95.40;;;;;;5039856;28;20296;-39
2023/04/27 03:32:18;;;;;;;10.20;7.93;;;7.30;95.40;;;;;;5023875;28;20193;-40
2023/04/27 03:34:47;;;;;;;12.83;7.83;;;7.30;95.50;;;;;;5045193;28;20273;-40
2023/04/27 03:37:17;;;;;;;9.47;7.80;;;7.20;95.40;;;;;;5030751;28;20275;-40
2023/04/27 03:39:46;;;;;;;9.70;7.63;;;7.10;95.30;;;;;;5023684;28;20234;-40
2023/04/27 03:42:16;;;;;;;9.90;7.80;;;7.10;95.30;;;;;;5024596;28;20208;-33
2023/04/27 03:44:43;;;;;;;9.57;7.40;;;7.10;95.30;;;;;;5055369;28;20207;-33
2023/04/27 03:47:20;;;;;;;11.10;7.83;;;7.10;95.30;;;;;;5023621;28;20228;-33
2023/04/27 03:49:50;;;;;;;10.00;7.80;;;7.00;95.30;;;;;;5060379;28;20221;-33
2023/04/27 03:52:22;;;;;;;13.30;8.27;;;7.00;95.30;;;;;;5043583;28;20835;-33
2023/04/27 03:54:49;;;;;;;13.33;7.47;;;7.00;95.40;;;;;;5054972;28;20711;-33
2023/04/27 03:57:20;;;;;;;10.97;7.77;;;7.00;95.40;;;;;;5062561;28;20246;-32
2023/04/27 03:59:50;;;;;;;9.70;7.50;;;7.10;95.60;;;;;;5065201;28;20328;-33
2023/04/27 04:02:20;;;;;;;10.50;7.80;;;7.00;95.60;;;;;;5057575;28;20211;-33
2023/04/27 04:04:50;;;;;;;11.97;8.50;;;7.10;95.60;;;;;;5062327;28;20211;-33
2023/04/27 04:07:20;;;;;;;13.73;8.80;;;7.00;95.70;;;;;;5062900;28;20235;-33
2023/04/27 04:09:47;;;;;;;11.63;8.57;;;7.10;95.80;;;;;;5058843;28;20200;-33
2023/04/27 04:12:16;;;;;;;12.17;8.63;;;7.10;95.60;;;;;;5045920;28;20206;-33
2023/04/27 04:14:47;;;;;;;11.43;8.63;;;7.10;95.60;;;;;;5063799;28;20841;-33
2023/04/27 04:17:15;;;;;;;11.50;7.73;;;7.10;95.60;;;;;;5045916;28;20593;-33
2023/04/27 04:19:44;;;;;;;10.60;7.90;;;7.10;95.60;;;;;;5055835;28;20261;-33
2023/04/27 04:22:16;;;;;;;10.93;7.60;;;7.20;95.60;;;;;;5050519;28;20204;-33
2023/04/27 04:24:48;;;;;;;13.37;7.50;;;7.20;95.60;;;;;;5043269;28;20700;-33
2023/04/27 04:27:18;;;;;;;14.13;8.50;;;7.20;95.70;;;;;;5034704;28;20245;-33
2023/04/27 04:29:49;;;;;;;11.80;7.97;;;7.20;95.80;;;;;;5028053;28;20208;-33
2023/04/27 04:32:22;;;;;;;10.83;8.07;;;7.20;95.90;;;;;;5037150;28;20647;-33
2023/04/27 04:34:52;;;;;;;11.57;8.13;;;7.20;95.80;;;;;;5043550;28;20212;-33
2023/04/27 04:37:26;;;;;;;11.97;8.33;;;7.20;95.80;;;;;;5034142;28;20212;-33
2023/04/27 04:39:53;;;;;;;11.83;8.73;;;7.20;95.80;;;;;;5033430;28;20200;-33
2023/04/27 04:42:25;;;;;;;11.73;8.20;;;7.20;95.80;;;;;;5047595;28;20204;-33
2023/04/27 04:44:52;;;;;;;12.73;8.50;;;7.20;95.80;;;;;;5030943;28;20296;-33
2023/04/27 04:47:21;;;;;;;12.73;8.73;;;7.30;95.90;;;;;;5028253;28;20225;-33
2023/04/27 04:49:49;;;;;;;11.73;8.10;;;7.30;95.90;;;;;;5027297;28;20219;-33
2023/04/27 04:52:20;;;;;;;12.13;8.43;;;7.30;95.90;;;;;;5027834;28;20220;-33
2023/04/27 04:54:53;;;;;;;14.97;8.60;;;7.30;96.00;;;;;;5059033;28;20214;-33
2023/04/27 04:57:22;;;;;;;13.93;8.80;;;7.30;96.00;;;;;;5039713;28;20346;-33
2023/04/27 04:59:49;;;;;;;12.27;8.80;;;7.30;96.00;;;;;;5036264;28;20312;-33
2023/04/27 05:02:17;;;;;;;13.03;8.83;;;7.30;95.90;;;;;;5043482;28;20294;-33
2023/04/27 05:04:46;;;;;;;13.93;9.13;;;7.30;96.00;;;;;;5053927;28;20224;-33
2023/04/27 05:07:14;;;;;;;13.53;8.83;;;7.30;96.00;;;;;;5039289;28;20274;-33
2023/04/27 05:09:43;;;;;;;12.93;8.43;;;7.40;96.20;;;;;;5024598;28;20206;-33
2023/04/27 05:12:13;;;;;;;11.93;8.10;;;7.40;96.10;;;;;;5044929;28;20200;-33
2023/04/27 05:14:43;;;;;;;10.77;8.23;;;7.40;96.20;;;;;;5036030;28;20233;-33
2023/04/27 05:17:14;;;;;;;11.17;8.67;;;7.40;96.20;;;;;;5038071;28;20203;-33
2023/04/27 05:19:46;;;;;;;15.13;8.10;;;7.40;96.20;;;;;;5043292;28;20726;-33
2023/04/27 05:22:15;;;;;;;12.90;8.90;;;7.40;96.20;;;;;;5041257;28;20281;-33
2023/04/27 05:24:47;;;;;;;11.40;8.23;;;7.40;96.30;;;;;;5036698;28;20218;-32
2023/04/27 05:27:19;;;;;;;13.87;8.87;;;7.50;96.30;;;;;;5039481;28;20788;-33
2023/04/27 05:29:47;;;;;;;16.20;8.83;;;7.50;96.30;;;;;;5039088;28;20242;-33
2023/04/27 05:32:16;;;;;;;15.33;9.07;;;7.60;96.30;;;;;;5033236;28;20199;-33
2023/04/27 05:34:43;;;;;;;12.53;8.80;;;7.60;96.30;;;;;;5026848;28;20468;-33
2023/04/27 05:37:16;;;;;;;15.87;9.40;;;7.60;96.30;;;;;;5041958;28;20248;-33
2023/04/27 05:39:43;;;;;;;12.20;7.73;;;7.60;96.50;;;;;;5041687;28;20287;-33
2023/04/27 05:42:12;;;;;;;13.77;9.10;;;7.60;96.50;;;;;;5036928;28;20200;-33
2023/04/27 05:44:40;;;;;;;14.37;8.60;;;7.70;96.50;;;;;;5050989;28;20306;-33
2023/04/27 05:47:09;;;;;;;13.97;8.67;;;7.80;96.60;;;;;;5041028;28;20860;-33
2023/04/27 05:49:40;;;;;;;13.20;9.30;;;7.80;96.70;;;;;;5042151;28;20625;-33
2023/04/27 05:52:07;;;;;;;13.43;8.90;;;7.80;96.80;;;;;;5040286;28;20552;-32
2023/04/27 05:54:34;;;;;;;13.53;9.00;;;7.80;96.60;;;;;;5047289;28;20277;-33
2023/04/27 05:57:04;;;;;;;14.80;8.93;;;7.90;96.70;;;;;;5042541;28;20242;-33
2023/04/27 05:59:36;;;;;;;15.23;9.60;;;8.00;96.80;;;;;;5066386;28;20203;-33
2023/04/27 06:02:06;;;;;;;14.43;8.77;;;8.00;96.90;;;;;;5048766;28;20225;-33
2023/04/27 06:04:34;;;;;;;14.83;8.57;;;8.10;96.90;;;;;;5043854;28;20723;-33
2023/04/27 06:07:13;;;;;;;19.73;9.57;;;8.10;97.20;;;;;;5031759;28;20224;-33
2023/04/27 06:09:42;;;;;;;14.80;8.90;;;8.20;97.00;;;;;;5031251;28;20236;-30
2023/04/27 06:12:12;;;;;;;15.33;9.27;;;8.20;96.90;;;;;;5037890;28;20383;-30
2023/04/27 06:14:41;;;;;;;14.43;9.27;;;8.30;96.90;;;;;;5044660;28;20643;-30
2023/04/27 06:17:09;;;;;;;13.73;9.63;;;8.40;96.90;;;;;;5042523;28;20579;-30
2023/04/27 06:19:36;;;;;;;11.67;8.20;;;8.40;97.00;;;;;;5054326;28;20205;-30
2023/04/27 06:22:03;;;;;;;15.70;9.50;;;8.50;97.00;;;;;;5031505;28;20240;-30
2023/04/27 06:24:35;;;;;;;18.37;9.77;;;8.60;97.10;;;;;;5036442;28;20777;-30
2023/04/27 06:27:06;;;;;;;13.60;9.37;;;8.60;97.10;;;;;;5029385;28;20248;-30
2023/04/27 06:29:36;;;;;;;12.87;8.77;;;8.70;97.20;;;;;;5033864;28;20286;-30
2023/04/27 06:32:06;;;;;;;12.77;8.17;;;8.70;97.20;;;;;;5042984;28;20714;-31
2023/04/27 06:34:36;;;;;;;12.47;8.80;;;8.80;97.30;;;;;;5030800;28;20694;-30
2023/04/27 06:37:06;;;;;;;14.77;8.33;;;8.80;97.30;;;;;;5034368;28;20220;-41
2023/04/27 06:39:34;;;;;;;11.13;8.07;;;8.90;97.30;;;;;;5029852;28;20236;-41
2023/04/27 06:42:03;;;;;;;10.97;7.97;;;9.00;97.40;;;;;;5044489;28;20196;-41
2023/04/27 06:44:31;;;;;;;14.77;8.17;;;9.10;97.40;;;;;;5029820;28;20223;-41
2023/04/27 06:46:58;;;;;;;10.77;7.57;;;9.10;97.40;;;;;;5034801;28;20840;-41
2023/04/27 06:49:27;;;;;;;13.03;7.80;;;9.20;97.50;;;;;;5025631;28;20234;-41
2023/04/27 06:51:55;;;;;;;14.37;8.00;;;9.30;97.50;;;;;;5034574;28;20752;-41
2023/04/27 06:54:22;;;;;;;11.73;7.87;;;9.40;97.50;;;;;;5031744;28;21306;-41
2023/04/27 06:56:49;;;;;;;11.20;7.60;;;9.40;97.50;;;;;;5035890;28;20231;-41
2023/04/27 06:59:21;;;;;;;10.63;8.17;;;9.50;97.60;;;;;;5027635;28;20686;-41
2023/04/27 07:01:51;;;;;;;13.43;9.63;;;9.60;97.70;;;;;;5043245;28;20204;-42
2023/04/27 07:04:18;;;;;;;14.13;8.90;;;9.60;97.60;;;;;;5045542;28;20677;-41
2023/04/27 07:06:45;;;;;;;11.30;8.10;;;9.70;97.70;;;;;;5045628;28;20204;-42
2023/04/27 07:09:15;;;;;;;12.00;8.77;;;9.80;97.70;;;;;;5040919;28;20208;-41
2023/04/27 07:11:57;;;;;;;10.80;8.17;;;9.80;97.80;;;;;;5024686;28;20204;-42
2023/04/27 07:14:29;;;;;;;12.47;8.37;;;9.90;97.80;;;;;;5041188;28;20248;-42
2023/04/27 07:16:56;;;;;;;13.87;8.83;;;9.90;97.80;;;;;;5038889;28;20559;-41
2023/04/27 07:19:25;;;;;;;15.13;9.63;;;10.00;97.40;;;;;;5033337;28;20215;-42
2023/04/27 07:21:55;;;;;;;14.63;9.97;;;10.10;97.40;;;;;;5038001;28;20759;-42
2023/04/27 07:24:27;;;;;;;12.47;9.00;;;10.10;97.40;;;;;;5040280;28;20210;-42
2023/04/27 07:27:01;;;;;;;18.87;9.43;;;10.20;97.40;;;;;;5040717;28;20294;-42
2023/04/27 07:29:31;;;;;;;17.33;9.93;;;10.20;97.40;;;;;;5038693;28;20724;-42
2023/04/27 07:32:03;;;;;;;15.70;10.23;;;10.30;97.50;;;;;;5045419;28;20220;-42
2023/04/27 07:34:31;;;;;;;14.63;10.53;;;10.40;97.50;;;;;;5035379;28;20197;-42
2023/04/27 07:37:14;;;;;;;14.43;10.40;;;10.40;97.50;;;;;;5045423;28;20212;-41
2023/04/27 07:39:42;;;;;;;15.17;10.23;;;10.40;97.50;;;;;;5035704;28;20728;-30
2023/04/27 07:42:11;;;;;;;14.17;10.10;;;10.50;97.50;;;;;;5028891;28;20216;-31
2023/04/27 07:44:41;;;;;;;15.37;10.90;;;10.50;97.60;;;;;;5028142;28;20339;-30
2023/04/27 07:47:12;;;;;;;16.53;11.63;;;10.60;97.60;;;;;;5035560;28;20221;-41
2023/04/27 07:49:39;;;;;;;16.83;11.10;;;10.70;97.70;;;;;;5035218;28;20259;-42
2023/04/27 07:52:11;;;;;;;15.87;11.23;;;10.70;97.70;;;;;;5029369;28;20208;-42
2023/04/27 07:54:41;;;;;;;14.40;10.23;;;10.80;97.70;;;;;;5043287;28;20216;-42
2023/04/27 07:57:11;;;;;;;13.20;10.93;;;10.80;97.70;;;;;;5040820;28;20263;-42
2023/04/27 07:59:39;;;;;;;14.73;9.70;;;10.90;97.80;;;;;;5047954;28;20215;-42
2023/04/27 08:02:06;;;;;;;14.17;10.63;;;10.90;97.80;;;;;;5054008;28;20343;-42
2023/04/27 08:04:49;;;;;;;16.63;11.00;;;11.00;97.80;;;;;;5033380;28;20743;-42
2023/04/27 08:07:19;;;;;;;14.83;10.80;;;11.10;97.90;;;;;;5041117;28;20637;-42
2023/04/27 08:09:52;;;;;;;13.70;10.10;;;11.10;97.90;;;;;;5024156;28;20204;-42
2023/04/27 08:12:22;;;;;;;14.23;9.97;;;11.20;98.00;;;;;;5052997;28;20307;-42
2023/04/27 08:14:53;;;;;;;13.90;9.70;;;11.20;97.90;;;;;;5039186;28;20239;-42
2023/04/27 08:17:20;;;;;;;15.43;10.57;;;11.30;98.00;;;;;;5050549;28;20634;-42
2023/04/27 08:19:48;;;;;;;15.00;10.10;;;11.40;98.10;;;;;;5032734;28;20216;-42
2023/04/27 08:22:17;;;;;;;15.93;11.23;;;11.40;98.10;;;;;;5022371;28;20209;-42
2023/04/27 08:24:47;;;;;;;15.90;10.40;;;11.50;98.20;;;;;;5025184;28;20768;-42
2023/04/27 08:27:15;;;;;;;20.27;11.90;;;11.50;98.20;;;;;;5039100;28;20694;-42
2023/04/27 08:29:46;;;;;;;13.87;9.67;;;11.60;98.20;;;;;;5039986;28;20204;-42
2023/04/27 08:32:19;;;;;;;13.60;10.00;;;11.70;98.30;;;;;;5053521;28;20781;-42
2023/04/27 08:34:46;;;;;;;14.67;10.47;;;11.70;98.20;;;;;;5022728;28;20212;-42
2023/04/27 08:37:18;;;;;;;17.43;10.30;;;11.80;98.30;;;;;;5037368;28;20696;-42
2023/04/27 08:39:48;;;;;;;15.70;10.40;;;11.90;98.40;;;;;;5032299;28;20200;-41
2023/04/27 08:42:17;;;;;;;14.67;10.27;;;11.90;98.50;;;;;;5055864;28;20196;-42
2023/04/27 08:44:47;;;;;;;17.40;10.70;;;12.00;98.50;;;;;;5048315;28;20544;-42
2023/04/27 08:47:16;;;;;;;15.53;9.90;;;12.10;98.60;;;;;;5039945;28;20235;-42
2023/04/27 08:49:56;;;;;;;14.43;9.50;;;12.10;98.50;;;;;;5027347;28;20219;-42
2023/04/27 08:52:23;;;;;;;16.50;9.87;;;12.20;98.60;;;;;;5031611;28;20197;-42
2023/04/27 08:54:55;;;;;;;13.20;9.87;;;12.20;98.50;;;;;;5040120;28;20205;-43
2023/04/27 08:57:25;;;;;;;16.90;10.83;;;12.30;98.60;;;;;;5022245;28;20270;-42
2023/04/27 09:00:11;;;;;;;14.03;9.23;;;12.40;98.50;;;;;;5027201;28;20677;-42
2023/04/27 09:02:45;;;;;;;19.20;9.77;;;12.50;98.70;;;;;;5029217;28;20292;-42
2023/04/27 09:05:21;;;;;;;14.83;10.50;;;12.50;98.50;;;;;;5035023;28;20344;-42
2023/04/27 09:08:00;;;;;;;16.93;11.23;;;12.50;98.40;;;;;;5024048;28;20243;-42
2023/04/27 09:10:30;;;;;;;18.13;11.00;;;12.60;98.40;;;;;;5021977;28;20197;-42
2023/04/27 09:13:02;;;;;;;15.27;10.70;;;12.60;98.50;;;;;;5026705;28;20442;-42
2023/04/27 09:15:43;;;;;;;13.50;9.80;;;12.60;98.40;;;;;;5036627;28;20295;-42
2023/04/27 09:18:21;;;;;;;15.23;10.77;;;12.70;98.50;;;;;;5009019;28;20600;-42
2023/04/27 09:20:52;;;;;;;17.93;10.50;;;12.80;98.10;;;;;;5023470;28;20209;-42
2023/04/27 09:23:27;;;;;;;14.33;9.50;;;12.80;98.00;;;;;;5039249;28;20296;-42
2023/04/27 09:26:04;;;;;;;17.90;9.77;;;12.80;98.20;;;;;;5032141;28;20299;-41
2023/04/27 09:28:36;;;;;;;14.95;9.63;;;12.80;98.00;;;;;;5047025;28;20236;-42
2023/04/27 09:31:04;;;;;;;15.03;9.87;;;12.90;98.10;;;;;;5040872;28;20200;-42
2023/04/27 09:33:33;;;;;;;15.53;10.20;;;12.90;98.20;;;;;;5032893;28;20756;-42
2023/04/27 09:36:05;;;;;;;13.07;9.27;;;13.00;98.20;;;;;;5033279;28;20200;-42
2023/04/27 09:38:35;;;;;;;14.97;9.03;;;13.00;98.20;;;;;;5039803;28;20208;-42
2023/04/27 09:41:06;;;;;;;13.03;10.13;;;13.10;98.30;;;;;;5042543;28;20339;-42
2023/04/27 09:43:37;;;;;;;14.47;10.23;;;13.10;98.00;;;;;;5039709;28;20259;-42
2023/04/27 09:46:08;;;;;;;12.50;9.37;;;13.20;98.20;;;;;;5039045;28;20227;-42
2023/04/27 09:48:38;;;;;;;14.20;9.37;;;13.30;98.30;;;;;;5032128;28;20217;-42
2023/04/27 09:51:06;;;;;;;12.70;8.83;;;13.30;98.50;;;;;;5029929;28;20220;-42
2023/04/27 09:53:50;;;;;;;15.47;9.40;;;13.40;98.60;;;;;;5035635;28;20326;-42
2023/04/27 09:56:36;;;;;;;12.47;9.47;;;13.50;98.50;;;;;;5037042;28;20235;-42
2023/04/27 09:59:20;;;;;;;12.75;9.07;;;13.50;98.20;;;;;;5031196;28;20223;-42
2023/04/27 10:01:55;;;;;;;11.82;8.15;;;13.60;98.20;;;;;;5034975;28;20211;-42
2023/04/27 10:04:59;;;;;;;16.80;10.10;;;13.60;98.30;;;;;;5043922;28;20751;-42
2023/04/27 10:07:27;;;;;;;14.30;8.70;;;13.70;98.10;;;;;;5027413;28;20705;-41
2023/04/27 10:10:00;;;;;;;11.38;9.32;;;13.70;98.30;;;;;;5035011;28;20756;-41
2023/04/27 10:12:37;;;;;;;10.25;7.80;;;13.70;98.20;;;;;;5039441;28;20215;-42
2023/04/27 10:15:18;;;;;;;10.30;8.50;;;13.80;98.40;;;;;;5027942;28;20672;-41
2023/04/27 10:17:53;;;;;;;13.45;8.18;;;13.80;98.50;;;;;;5030266;28;20759;-42
2023/04/27 10:20:35;;;;;;;12.13;7.60;;;13.90;98.50;;;;;;5032985;28;20717;-44
2023/04/27 10:23:03;;;;;;;11.10;8.00;;;13.90;98.50;;;;;;5037050;28;20917;-41
2023/04/27 10:25:40;;;;;;;9.13;7.63;;;14.00;98.50;;;;;;5040165;28;20255;-41
2023/04/27 10:28:15;;;;;;;11.02;7.45;;;14.10;98.50;;;;;;5029243;28;20689;-42
2023/04/27 10:30:46;;;;;;;13.95;7.90;;;14.10;98.40;;;;;;5033335;28;20290;-42
2023/04/27 10:33:22;;;;;;;10.32;7.72;;;14.10;98.60;;;;;;5033508;28;20594;-42
2023/04/27 10:35:59;;;;;;;15.15;9.55;;;14.30;98.80;;;;;;5050653;28;20751;-41
2023/04/27 10:38:30;;;;;;;15.93;9.77;;;14.30;98.70;;;;;;5049264;28;20231;-42
2023/04/27 10:41:01;;;;;;;12.57;9.80;;;14.40;98.70;;;;;;5026228;28;20220;-42
2023/04/27 10:43:30;;;;;;;15.35;9.68;;;14.40;98.40;;;;;;5032987;28;20241;-42
2023/04/27 10:46:12;;;;;;;11.88;9.45;;;14.50;98.70;;;;;;5041372;28;20669;-41
2023/04/27 10:48:46;;;;;;;14.48;10.48;;;14.50;98.50;;;;;;5038334;28;20693;-42
2023/04/27 10:51:16;;;;;;;12.80;9.55;;;14.60;98.40;;;;;;5043316;28;20281;-41
2023/04/27 10:53:44;;;;;;;14.18;10.15;;;14.70;98.70;;;;;;5040295;28;20204;-41
2023/04/27 10:56:13;;;;;;;13.93;9.48;;;14.70;97.90;;;;;;5039537;28;20240;-41
2023/04/27 10:58:45;;;;;;;13.10;9.70;;;14.70;98.40;;;;;;5034279;28;20220;-42
2023/04/27 11:01:25;;;;;;;11.77;8.15;;;14.80;98.30;;;;;;5043977;28;20200;-42
2023/04/27 11:04:00;;;;;;;12.95;9.20;;;14.80;98.60;;;;;;5038652;28;20211;-42
2023/04/27 11:06:33;;;;;;;11.47;8.20;;;14.80;98.60;;;;;;5060935;28;20313;-41
2023/04/27 11:09:05;;;;;;;10.82;8.82;;;14.90;98.60;;;;;;5051446;28;20247;-42
2023/04/27 11:11:34;;;;;;;11.38;8.48;;;14.90;98.70;;;;;;5040697;28;20201;-42
2023/04/27 11:14:04;;;;;;;11.80;8.43;;;15.10;98.90;;;;;;5025805;28;20197;-41
2023/04/27 11:16:33;;;;;;;11.93;8.55;;;15.10;99.00;;;;;;5026482;28;20673;-42
2023/04/27 11:19:07;;;;;;;13.70;9.10;;;15.20;99.00;;;;;;5037289;28;20235;-42
2023/04/27 11:21:36;;;;;;;10.85;8.25;;;15.30;98.60;;;;;;5039425;28;20208;-42
2023/04/27 11:24:07;;;;;;;10.73;7.97;;;15.30;98.90;;;;;;5035691;28;20212;-41
2023/04/27 11:26:37;;;;;;;12.63;8.17;;;15.40;98.70;;;;;;5052392;28;20208;-41
2023/04/27 11:29:14;;;;;;;12.00;8.30;;;15.40;98.60;;;;;;5035031;28;20301;-42
2023/04/27 11:31:50;;;;;;;10.87;8.10;;;15.50;98.50;;;;;;5037348;28;20227;-41
2023/04/27 11:34:21;;;;;;;12.25;8.88;;;15.50;98.70;;;;;;5040469;28;20206;-41
2023/04/27 11:37:01;;;;;;;15.02;9.07;;;15.50;98.40;;;;;;5050439;28;20212;-41
2023/04/27 11:39:36;;;;;;;13.93;8.90;;;15.60;98.60;;;;;;5028663;28;20610;-42
2023/04/27 11:42:27;;;;;;;12.00;8.57;;;15.50;97.80;;;;;;5038467;28;20223;-41
2023/04/27 11:44:54;;;;;;;12.87;8.40;;;15.60;97.70;;;;;;5039550;28;20208;-42
2023/04/27 11:47:26;;;;;;;11.70;7.90;;;15.50;97.60;;;;;;5034430;28;20737;-42
2023/04/27 11:49:58;;;;;;;11.00;8.63;;;15.50;98.00;;;;;;5036022;28;20217;-42
2023/04/27 11:52:32;;;;;;;9.85;7.75;;;15.50;98.00;;;;;;5036404;28;20217;-41
2023/04/27 11:55:00;;;;;;;11.20;8.02;;;15.50;98.20;;;;;;5035936;28;20239;-41
2023/04/27 11:57:33;;;;;;;10.80;7.27;;;15.50;98.10;;;;;;5034020;28;20321;-42
2023/04/27 12:00:10;;;;;;;12.63;7.53;;;15.50;97.90;;;;;;5036908;28;20289;-42
2023/04/27 12:02:38;;;;;;;10.20;6.78;;;15.50;97.30;;;;;;5046950;28;20287;-42
2023/04/27 12:05:08;;;;;;;15.02;8.95;;;15.50;98.00;;;;;;5041895;28;20674;-42
2023/04/27 12:07:39;;;;;;;10.82;7.80;;;15.50;97.30;;;;;;5027186;28;20205;-41
2023/04/27 12:10:10;;;;;;;11.88;7.82;;;15.50;97.90;;;;;;5025398;28;20249;-41
2023/04/27 12:12:41;;;;;;;12.57;9.80;;;15.50;97.90;;;;;;5054215;28;20300;-41
2023/04/27 12:15:09;;;;;;;10.88;8.50;;;15.50;96.90;;;;;;5038682;28;20285;-41
2023/04/27 12:17:46;;;;;;;13.48;8.75;;;15.50;96.80;;;;;;5043198;28;20605;-41
2023/04/27 12:20:16;;;;;;;11.95;8.10;;;15.50;97.20;;;;;;5044781;28;20208;-41
2023/04/27 12:22:46;;;;;;;13.38;8.80;;;15.50;97.50;;;;;;5032899;28;20208;-41
2023/04/27 12:25:14;;;;;;;12.73;8.33;;;15.50;97.60;;;;;;5039011;28;20231;-41
2023/04/27 12:27:41;;;;;;;11.93;7.75;;;15.50;97.40;;;;;;5040884;28;20716;-41
2023/04/27 12:30:12;;;;;;;12.70;8.38;;;15.50;97.50;;;;;;5041887;28;20234;-41
2023/04/27 12:32:42;;;;;;;12.98;8.32;;;15.50;97.50;;;;;;5037312;28;20204;-41
2023/04/27 12:35:09;;;;;;;9.73;7.15;;;15.60;97.50;;;;;;5042088;28;20662;-41
2023/04/27 12:37:39;;;;;;;10.82;7.97;;;15.60;97.60;;;;;;5036566;28;20827;-41
2023/04/27 12:40:08;;;;;;;9.68;7.43;;;15.60;97.60;;;;;;5023815;28;20208;-41
2023/04/27 12:42:40;;;;;;;10.32;8.02;;;15.60;97.50;;;;;;5036898;28;20302;-41
2023/04/27 12:45:09;;;;;;;9.07;7.95;;;15.60;97.60;;;;;;5038203;28;20830;-41
2023/04/27 12:47:40;;;;;;;10.57;7.38;;;15.60;97.70;;;;;;5039178;28;20252;-41
2023/04/27 12:50:14;;;;;;;9.23;7.20;;;15.60;97.70;;;;;;5040445;28;20683;-41
2023/04/27 12:52:41;;;;;;;10.70;7.60;;;15.70;97.70;;;;;;5032338;28;20249;-41
2023/04/27 12:55:14;;;;;;;10.25;7.78;;;15.70;97.70;;;;;;5033462;28;20243;-40
2023/04/27 12:58:06;;;;;;;10.43;7.53;;;15.70;97.70;;;;;;5031614;28;20721;-40
2023/04/27 13:00:36;;;;;;;10.10;7.32;;;15.80;97.60;;;;;;5028894;28;20269;-41